Time;durP1;ratioP1;P1;durP2;ratioP2;P2;SDS_P1;SDS_P2;PMS_P1;PMS_P2;Temp;Humidity;BMP_temperature;BMP_pressure;BME280_temperature;BME280_humidity;BME280_pressure;Samples;Min_cycle;Max_cycle;Signal;HPM_P1;HPM_P2
2022/07/21 00:02:07;;;;;;;;;17.25;14.50;;;29.46;97783.45;;;;118994;1189;26041;-68
2022/07/21 00:04:35;;;;;;;;;12.50;12.50;;;29.46;97781.67;;;;118996;1189;26474;-68
2022/07/21 00:07:02;;;;;;;;;16.25;14.75;;;29.46;97777.55;;;;119019;1189;25534;-68
2022/07/21 00:09:30;;;;;;;;;11.25;11.25;;;29.47;97775.16;;;;118996;1189;24824;-69
2022/07/21 00:11:58;;;;;;;;;10.75;10.25;;;29.47;97775.27;;;;118991;1189;25632;-69
2022/07/21 00:14:26;;;;;;;;;10.00;8.50;;;29.47;97775.67;;;;118979;1189;25328;-68
2022/07/21 00:16:54;;;;;;;;;14.25;14.00;;;29.45;97776.52;;;;119006;1189;25199;-68
2022/07/21 00:19:22;;;;;;;;;14.75;14.00;;;29.45;97778.98;;;;118988;1190;26107;-68
2022/07/21 00:21:49;;;;;;;;;9.25;9.25;;;29.43;97780.77;;;;118995;1189;25859;-68
2022/07/21 00:24:17;;;;;;;;;16.00;12.50;;;29.41;97778.20;;;;119049;1189;25114;-68
2022/07/21 00:26:45;;;;;;;;;12.00;11.33;;;29.43;97778.67;;;;119127;1189;25822;-68
2022/07/21 00:29:13;;;;;;;;;13.00;11.00;;;29.42;97775.70;;;;119121;1187;25084;-68
2022/07/21 00:31:41;;;;;;;;;16.00;14.00;;;29.41;97775.70;;;;119143;1188;25476;-69
2022/07/21 00:34:09;;;;;;;;;12.00;11.50;;;29.41;97777.67;;;;119123;1188;24988;-68
2022/07/21 00:36:37;;;;;;;;;12.25;11.25;;;29.42;97776.70;;;;119132;1187;25260;-68
2022/07/21 00:39:04;;;;;;;;;13.00;12.25;;;29.41;97777.77;;;;119113;1187;25043;-68
2022/07/21 00:41:34;;;;;;;;;11.50;9.75;;;29.39;97774.79;;;;118928;1190;24784;-67
2022/07/21 00:44:02;;;;;;;;;12.00;12.00;;;29.38;97770.73;;;;118995;1189;25539;-67
2022/07/21 00:46:30;;;;;;;;;14.50;12.75;;;29.38;97772.15;;;;118992;1189;25528;-67
2022/07/21 00:48:58;;;;;;;;;14.25;11.75;;;29.38;97774.87;;;;118981;1190;26060;-67
2022/07/21 00:51:26;;;;;;;;;11.25;11.25;;;29.37;97774.59;;;;119013;1189;25611;-67
2022/07/21 00:53:54;;;;;;;;;9.50;9.50;;;29.37;97774.83;;;;118995;1189;25621;-67
2022/07/21 00:56:22;;;;;;;;;14.75;13.25;;;29.39;97776.27;;;;119030;1189;25341;-68
2022/07/21 00:58:50;;;;;;;;;10.50;10.50;;;29.36;97775.83;;;;119010;1190;25128;-68
2022/07/21 01:01:18;;;;;;;;;15.25;11.50;;;29.36;97779.54;;;;119085;1187;26788;-68
2022/07/21 01:03:46;;;;;;;;;14.75;14.00;;;29.38;97778.56;;;;119061;1187;26546;-68
2022/07/21 01:06:14;;;;;;;;;12.75;11.25;;;29.37;97778.73;;;;118969;1189;24780;-68
2022/07/21 01:08:42;;;;;;;;;14.33;14.33;;;29.36;97778.23;;;;119006;1189;25429;-67
2022/07/21 01:11:10;;;;;;;;;13.33;11.33;;;29.34;97777.42;;;;119029;1188;25424;-75
2022/07/21 01:13:41;;;;;;;;;11.00;10.00;;;29.40;97779.06;;;;118979;1189;24884;-75
2022/07/21 01:16:10;;;;;;;;;9.75;9.75;;;29.40;97782.02;;;;119006;1189;25199;-74
2022/07/21 01:18:37;;;;;;;;;11.00;11.00;;;29.45;97784.17;;;;118987;1189;26324;-75
2022/07/21 01:21:25;;;;;;;;;10.33;10.00;;;29.39;97787.91;;;;119124;1187;25548;-75
2022/07/21 01:23:53;;;;;;;;;10.25;10.25;;;29.42;97789.36;;;;119105;1187;25103;-75
2022/07/21 01:26:21;;;;;;;;;10.50;9.50;;;29.39;97793.33;;;;119096;1187;25101;-75
2022/07/21 01:28:49;;;;;;;;;13.00;10.75;;;29.35;97799.52;;;;119099;1186;25964;-75
2022/07/21 01:31:18;;;;;;;;;9.50;9.50;;;29.33;97801.77;;;;119096;1187;25435;-75
2022/07/21 01:33:46;;;;;;;;;10.25;8.75;;;29.31;97798.88;;;;119093;1188;25684;-76
2022/07/21 01:36:14;;;;;;;;;9.00;9.00;;;29.29;97799.73;;;;119119;1188;25667;-76
2022/07/21 01:41:31;;;;;;;;;10.50;10.50;;;29.28;97799.73;;;;119122;1188;25076;-75
2022/07/21 01:44:04;;;;;;;;;7.25;6.00;;;29.27;97796.10;;;;118946;1190;25443;-75
2022/07/21 01:46:35;;;;;;;;;16.00;10.50;;;29.29;97792.13;;;;119107;1188;25569;-76
2022/07/21 01:49:04;;;;;;;;;13.25;10.75;;;29.30;97786.48;;;;118979;1187;25376;-75
2022/07/21 01:51:33;;;;;;;;;11.00;10.00;;;29.29;97784.98;;;;119059;1189;25960;-74
2022/07/21 01:54:00;;;;;;;;;9.25;9.25;;;29.31;97781.95;;;;119249;1189;25928;-75
2022/07/21 01:56:28;;;;;;;;;8.67;8.67;;;29.58;97778.02;;;;118958;1190;25681;-74
2022/07/21 01:58:57;;;;;;;;;10.25;10.25;;;29.61;97773.81;;;;118997;1190;25852;-75
2022/07/21 02:01:27;;;;;;;;;9.00;8.00;;;29.50;97776.13;;;;118957;1190;25253;-74
2022/07/21 02:03:56;;;;;;;;;10.25;8.75;;;29.42;97772.83;;;;118981;1189;25582;-74
2022/07/21 02:06:25;;;;;;;;;9.50;9.50;;;29.40;97773.02;;;;119022;1187;24768;-74
2022/07/21 02:08:53;;;;;;;;;8.75;8.75;;;29.38;97773.20;;;;118943;1189;25403;-74
2022/07/21 02:11:22;;;;;;;;;11.75;10.25;;;29.39;97773.11;;;;119632;1188;25445;-75
2022/07/21 02:13:50;;;;;;;;;10.00;9.00;;;29.89;97776.29;;;;119614;1188;24956;-75
2022/07/21 02:16:18;;;;;;;;;9.25;9.25;;;30.20;97771.91;;;;118975;1190;25209;-74
2022/07/21 02:18:46;;;;;;;;;10.75;9.50;;;29.92;97780.70;;;;118978;1190;25880;-74
2022/07/21 02:21:14;;;;;;;;;10.00;9.00;;;29.70;97783.03;;;;118954;1189;24864;-75
2022/07/21 02:23:41;;;;;;;;;10.75;9.25;;;29.55;97783.14;;;;119095;1186;26186;-75
2022/07/21 02:26:09;;;;;;;;;9.75;9.75;;;29.46;97780.89;;;;119138;1188;25821;-74
2022/07/21 02:28:37;;;;;;;;;13.00;11.00;;;29.39;97782.33;;;;119173;1187;26232;-74
2022/07/21 02:31:05;;;;;;;;;11.25;10.75;;;29.32;97783.17;;;;118979;1189;24779;-75
2022/07/21 02:33:33;;;;;;;;;10.50;8.50;;;29.30;97786.70;;;;119192;1187;26341;-75
2022/07/21 02:36:02;;;;;;;;;11.25;10.25;;;29.27;97789.89;;;;118989;1188;25209;-75
2022/07/21 02:38:29;;;;;;;;;9.50;8.25;;;29.25;97792.16;;;;119006;1189;24982;-75
2022/07/21 02:40:58;;;;;;;;;12.75;12.25;;;29.23;97794.27;;;;119167;1187;25591;-76
2022/07/21 02:43:26;;;;;;;;;13.00;11.25;;;29.19;97799.43;;;;119100;1189;26391;-75
2022/07/21 02:45:54;;;;;;;;;10.00;9.00;;;29.19;97799.86;;;;118960;1190;25547;-75
2022/07/21 02:48:21;;;;;;;;;11.50;10.00;;;29.16;97800.77;;;;118993;1189;25486;-76
2022/07/21 02:50:49;;;;;;;;;10.00;10.00;;;29.13;97797.04;;;;118997;1190;25371;-75
2022/07/21 02:53:19;;;;;;;;;14.75;10.75;;;29.09;97795.46;;;;118954;1190;25217;-75
2022/07/21 02:55:48;;;;;;;;;10.75;10.75;;;29.06;97795.06;;;;119000;1188;25429;-75
2022/07/21 02:58:21;;;;;;;;;8.50;8.50;;;29.06;97797.48;;;;119034;1187;25478;-75
2022/07/21 03:01:07;;;;;;;;;10.75;10.75;;;29.04;97800.26;;;;119044;1188;25269;-75
2022/07/21 03:03:36;;;;;;;;;11.33;10.33;;;29.07;97801.09;;;;119189;1187;25623;-75
2022/07/21 03:06:04;;;;;;;;;9.50;9.50;;;29.05;97806.30;;;;119183;1187;24900;-75
2022/07/21 03:08:33;;;;;;;;;11.25;10.50;;;29.03;97805.70;;;;119191;1187;24969;-76
2022/07/21 03:11:02;;;;;;;;;15.25;10.75;;;29.02;97807.04;;;;119185;1187;24868;-75
2022/07/21 03:13:30;;;;;;;;;9.50;8.75;;;28.99;97805.94;;;;119186;1188;25900;-76
2022/07/21 03:15:58;;;;;;;;;14.75;12.00;;;28.98;97805.94;;;;119183;1188;25093;-76
2022/07/21 03:18:26;;;;;;;;;12.00;8.75;;;28.95;97800.17;;;;118956;1189;24989;-76
2022/07/21 03:20:54;;;;;;;;;14.50;10.50;;;28.93;97802.41;;;;119018;1190;25637;-76
2022/07/21 03:23:22;;;;;;;;;11.75;9.50;;;28.92;97809.02;;;;118998;1190;25699;-75
2022/07/21 03:25:49;;;;;;;;;11.50;11.00;;;28.91;97812.78;;;;119013;1189;25229;-73
2022/07/21 03:28:17;;;;;;;;;12.67;9.00;;;28.89;97815.10;;;;119115;1188;25226;-74
2022/07/21 03:30:45;;;;;;;;;9.00;9.00;;;28.88;97815.65;;;;119019;1188;25190;-75
2022/07/21 03:33:13;;;;;;;;;11.25;10.00;;;28.88;97812.61;;;;118937;1189;25194;-73
2022/07/21 03:35:41;;;;;;;;;14.50;12.00;;;28.87;97811.77;;;;118950;1189;26199;-77
2022/07/21 03:38:09;;;;;;;;;14.50;9.50;;;28.89;97816.05;;;;118923;1189;25616;-76
2022/07/21 03:40:38;;;;;;;;;12.50;10.00;;;28.89;97819.77;;;;118906;1189;24937;-79
2022/07/21 03:43:08;;;;;;;;;14.50;13.00;;;28.90;97822.13;;;;119145;1188;25609;-77
2022/07/21 03:45:36;;;;;;;;;11.50;10.75;;;28.89;97820.56;;;;118971;1189;25269;-80
2022/07/21 03:48:06;;;;;;;;;8.25;8.25;;;28.89;97823.33;;;;119000;1189;25122;-75
2022/07/21 03:50:35;;;;;;;;;10.25;10.25;;;28.86;97824.73;;;;119183;1188;25255;-74
2022/07/21 03:53:04;;;;;;;;;12.25;10.75;;;28.86;97819.97;;;;119097;1188;25371;-78
2022/07/21 03:55:32;;;;;;;;;9.25;7.25;;;28.85;97820.50;;;;118652;1190;25449;-76
2022/07/21 03:58:03;;;;;;;;;12.75;12.00;;;28.79;97819.01;;;;119027;1188;25570;-77
2022/07/21 04:00:32;;;;;;;;;12.50;11.00;;;28.80;97820.23;;;;118992;1189;25077;-78
2022/07/21 04:03:01;;;;;;;;;11.25;10.00;;;28.79;97822.17;;;;118970;1189;24854;-76
2022/07/21 04:05:29;;;;;;;;;10.50;10.00;;;28.78;97823.43;;;;118904;1189;26118;-76
2022/07/21 04:07:58;;;;;;;;;11.00;11.00;;;28.78;97824.14;;;;118936;1190;25409;-77
2022/07/21 04:10:29;;;;;;;;;11.25;11.25;;;28.77;97823.73;;;;118889;1189;25284;-76
2022/07/21 04:12:59;;;;;;;;;15.50;13.50;;;28.77;97824.99;;;;119056;1188;24799;-73
2022/07/21 04:15:27;;;;;;;;;10.25;9.75;;;28.81;97826.25;;;;118971;1190;25555;-74
2022/07/21 04:17:55;;;;;;;;;10.75;10.75;;;28.83;97828.52;;;;118999;1188;25774;-74
2022/07/21 04:20:23;;;;;;;;;13.75;11.50;;;28.83;97825.79;;;;119065;1188;25408;-74
2022/07/21 04:22:52;;;;;;;;;14.67;13.00;;;28.81;97826.40;;;;119098;1187;25464;-75
2022/07/21 04:25:20;;;;;;;;;10.25;9.50;;;28.72;97824.86;;;;119101;1188;25549;-78
2022/07/21 04:27:49;;;;;;;;;17.75;15.75;;;28.74;97826.10;;;;118973;1188;26021;-76
2022/07/21 04:30:19;;;;;;;;;20.00;15.50;;;28.72;97826.44;;;;119040;1189;25212;-76
2022/07/21 04:32:48;;;;;;;;;21.00;15.50;;;28.73;97823.84;;;;118963;1190;25340;-75
2022/07/21 04:35:16;;;;;;;;;16.75;15.25;;;28.73;97822.48;;;;118964;1189;25299;-75
2022/07/21 04:37:44;;;;;;;;;17.75;12.75;;;28.68;97821.17;;;;118969;1189;25018;-75
2022/07/21 04:40:13;;;;;;;;;15.25;13.25;;;28.67;97820.53;;;;119071;1188;24973;-78
2022/07/21 04:42:41;;;;;;;;;18.25;14.75;;;28.71;97819.00;;;;119093;1187;25736;-78
2022/07/21 04:45:11;;;;;;;;;27.75;16.25;;;28.66;97821.20;;;;119101;1187;25338;-75
2022/07/21 04:47:52;;;;;;;;;14.25;13.25;;;28.67;97822.34;;;;119088;1188;25687;-70
2022/07/21 04:50:23;;;;;;;;;18.25;14.00;;;28.68;97822.02;;;;119042;1189;25471;-76
2022/07/21 04:52:51;;;;;;;;;19.50;13.75;;;28.68;97815.98;;;;119120;1189;25236;-76
2022/07/21 04:55:19;;;;;;;;;20.50;16.00;;;28.86;97815.86;;;;118979;1190;24930;-73
2022/07/21 04:57:49;;;;;;;;;21.25;17.50;;;28.86;97815.81;;;;118998;1190;25685;-67
2022/07/21 05:00:20;;;;;;;;;23.00;18.75;;;28.82;97814.39;;;;118988;1189;25409;-67
2022/07/21 05:02:49;;;;;;;;;20.00;15.75;;;28.83;97817.39;;;;118983;1190;25795;-67
2022/07/21 05:05:17;;;;;;;;;22.50;19.50;;;28.82;97814.78;;;;118993;1189;25643;-70
2022/07/21 05:07:45;;;;;;;;;27.00;19.50;;;28.80;97815.60;;;;118987;1189;24824;-69
2022/07/21 05:10:15;;;;;;;;;23.75;17.25;;;28.86;97816.75;;;;119065;1188;25224;-66
2022/07/21 05:12:43;;;;;;;;;31.75;21.50;;;29.12;97820.52;;;;119051;1190;26051;-66
2022/07/21 05:15:12;;;;;;;;;29.33;25.00;;;29.28;97820.02;;;;119023;1189;24919;-67
2022/07/21 05:17:41;;;;;;;;;40.75;32.50;;;29.40;97820.86;;;;119109;1190;24765;-64
2022/07/21 05:20:10;;;;;;;;;42.00;30.25;;;29.43;97823.55;;;;119004;1189;25523;-65
2022/07/21 05:22:39;;;;;;;;;36.50;20.00;;;29.29;97822.09;;;;119005;1190;25434;-65
2022/07/21 05:25:07;;;;;;;;;34.00;25.00;;;29.18;97819.35;;;;118996;1189;25565;-64
2022/07/21 05:27:35;;;;;;;;;34.25;22.50;;;29.10;97816.95;;;;118920;1190;25138;-65
2022/07/21 05:30:05;;;;;;;;;32.75;21.25;;;29.06;97815.21;;;;119008;1188;25721;-65
2022/07/21 05:32:33;;;;;;;;;34.50;25.25;;;29.06;97815.84;;;;118995;1190;24927;-65
2022/07/21 05:35:01;;;;;;;;;35.50;23.75;;;29.04;97817.78;;;;119004;1190;25287;-73
2022/07/21 05:37:29;;;;;;;;;33.50;27.00;;;29.01;97816.84;;;;118992;1189;24963;-66
2022/07/21 05:39:59;;;;;;;;;34.00;23.75;;;28.99;97818.16;;;;118984;1189;25148;-65
2022/07/21 05:42:26;;;;;;;;;30.50;20.25;;;28.99;97817.00;;;;119117;1187;26574;-65
2022/07/21 05:44:56;;;;;;;;;36.00;25.00;;;29.00;97818.21;;;;119137;1187;25360;-65
2022/07/21 05:47:24;;;;;;;;;24.75;21.50;;;29.00;97814.70;;;;118990;1189;24740;-65
2022/07/21 05:49:52;;;;;;;;;30.25;23.25;;;28.98;97813.83;;;;119124;1187;26022;-65
2022/07/21 05:52:20;;;;;;;;;25.33;20.33;;;28.96;97811.92;;;;119103;1188;24781;-65
2022/07/21 05:54:49;;;;;;;;;21.25;18.25;;;28.96;97811.76;;;;119110;1189;25118;-66
2022/07/21 05:57:18;;;;;;;;;18.00;14.00;;;28.95;97808.28;;;;119103;1188;26841;-65
2022/07/21 05:59:46;;;;;;;;;23.25;16.50;;;28.96;97805.14;;;;119124;1188;24722;-65
2022/07/21 06:02:14;;;;;;;;;26.00;17.25;;;28.95;97806.31;;;;119130;1188;26205;-65
2022/07/21 06:04:42;;;;;;;;;20.00;13.50;;;28.95;97807.45;;;;119137;1188;25387;-65
2022/07/21 06:07:10;;;;;;;;;16.75;15.50;;;28.97;97804.63;;;;119119;1187;24768;-65
2022/07/21 06:09:38;;;;;;;;;22.25;18.75;;;28.96;97802.35;;;;119002;1190;25569;-65
2022/07/21 06:12:06;;;;;;;;;16.50;14.00;;;28.96;97802.61;;;;119128;1188;25688;-65
2022/07/21 06:14:33;;;;;;;;;23.50;18.00;;;28.96;97805.58;;;;118977;1190;25180;-64
2022/07/21 06:17:01;;;;;;;;;19.50;17.25;;;28.96;97800.41;;;;119107;1187;25648;-65
2022/07/21 06:19:30;;;;;;;;;21.50;17.50;;;28.97;97802.98;;;;119086;1188;25136;-65
2022/07/21 06:21:59;;;;;;;;;17.50;17.00;;;28.97;97800.38;;;;118934;1190;25160;-65
2022/07/21 06:24:27;;;;;;;;;22.33;16.00;;;28.97;97799.31;;;;119028;1187;24803;-64
2022/07/21 06:26:57;;;;;;;;;20.00;15.00;;;28.98;97797.80;;;;119057;1187;24700;-72
2022/07/21 06:29:32;;;;;;;;;17.75;13.25;;;28.96;97800.46;;;;118972;1189;24950;-72
2022/07/21 06:32:00;;;;;;;;;13.50;12.25;;;28.97;97802.60;;;;118971;1189;25685;-74
2022/07/21 06:34:28;;;;;;;;;14.75;12.25;;;28.98;97801.83;;;;118971;1189;25833;-75
2022/07/21 06:36:56;;;;;;;;;16.00;13.67;;;28.95;97800.23;;;;118981;1187;25009;-74
2022/07/21 06:39:23;;;;;;;;;17.25;14.75;;;28.94;97799.66;;;;118969;1189;25275;-75
2022/07/21 06:41:51;;;;;;;;;14.50;12.00;;;28.94;97797.14;;;;118983;1189;26291;-74
2022/07/21 06:44:19;;;;;;;;;13.50;10.75;;;28.93;97794.09;;;;118941;1190;25051;-76
2022/07/21 06:46:47;;;;;;;;;14.75;11.00;;;28.95;97789.58;;;;118974;1190;24968;-78
2022/07/21 06:49:15;;;;;;;;;15.25;15.25;;;28.98;97789.38;;;;118970;1190;26515;-77
2022/07/21 06:51:42;;;;;;;;;13.25;13.25;;;28.99;97790.89;;;;119004;1190;25008;-76
2022/07/21 06:54:10;;;;;;;;;16.00;14.75;;;29.03;97790.45;;;;118938;1190;25204;-75
2022/07/21 06:56:38;;;;;;;;;15.33;15.33;;;29.03;97793.23;;;;118913;1189;25150;-74
2022/07/21 06:59:06;;;;;;;;;13.25;12.50;;;29.04;97788.54;;;;118958;1189;25212;-74
2022/07/21 07:01:35;;;;;;;;;14.75;12.75;;;29.03;97786.13;;;;118974;1190;25800;-73
2022/07/21 07:04:04;;;;;;;;;15.67;10.33;;;29.04;97784.08;;;;118953;1190;25401;-72
2022/07/21 07:06:32;;;;;;;;;9.00;9.00;;;29.08;97785.36;;;;118952;1190;25643;-73
2022/07/21 07:09:00;;;;;;;;;14.75;12.00;;;29.10;97784.94;;;;118942;1189;25247;-73
2022/07/21 07:11:28;;;;;;;;;11.00;10.75;;;29.09;97786.73;;;;118995;1189;24966;-71
2022/07/21 07:13:56;;;;;;;;;8.50;8.25;;;29.15;97786.94;;;;119007;1190;25099;-71
2022/07/21 07:16:35;;;;;;;;;9.75;9.75;;;29.29;97783.98;;;;119269;1189;25183;-72
2022/07/21 07:19:03;;;;;;;;;13.25;11.75;;;29.65;97781.19;;;;118942;1189;26256;-72
2022/07/21 07:21:31;;;;;;;;;10.00;10.00;;;29.52;97783.49;;;;118906;1190;25626;-72
2022/07/21 07:23:58;;;;;;;;;14.25;10.50;;;29.43;97783.42;;;;118962;1189;26189;-71
2022/07/21 07:26:26;;;;;;;;;13.00;10.25;;;29.38;97784.48;;;;118973;1189;25121;-72
2022/07/21 07:28:54;;;;;;;;;6.25;6.25;;;29.35;97784.34;;;;118927;1190;25350;-72
2022/07/21 07:31:22;;;;;;;;;12.00;9.25;;;29.36;97783.77;;;;118945;1190;24867;-73
2022/07/21 07:33:50;;;;;;;;;10.50;9.50;;;29.36;97786.77;;;;119253;1188;25931;-72
2022/07/21 07:36:19;;;;;;;;;10.25;9.75;;;29.53;97784.95;;;;119217;1187;25712;-72
2022/07/21 07:38:48;;;;;;;;;12.50;11.00;;;29.75;97785.94;;;;119309;1188;25074;-72
2022/07/21 07:41:15;;;;;;;;;13.25;11.75;;;29.88;97787.98;;;;119280;1187;25016;-74
2022/07/21 07:43:43;;;;;;;;;8.50;8.50;;;29.95;97786.73;;;;119059;1189;25228;-73
2022/07/21 07:46:12;;;;;;;;;10.25;10.25;;;30.02;97780.77;;;;119314;1186;25593;-73
2022/07/21 07:48:41;;;;;;;;;11.00;9.75;;;30.09;97773.29;;;;118948;1190;25603;-74
2022/07/21 07:51:10;;;;;;;;;11.00;10.75;;;29.99;97775.10;;;;118966;1190;25514;-73
2022/07/21 07:53:39;;;;;;;;;12.00;9.75;;;29.82;97771.97;;;;119197;1188;26058;-74
2022/07/21 07:56:08;;;;;;;;;10.50;10.25;;;29.68;97768.98;;;;119187;1187;25838;-73
2022/07/21 07:58:36;;;;;;;;;10.50;8.75;;;29.63;97765.94;;;;119145;1187;26350;-73
2022/07/21 08:01:05;;;;;;;;;11.75;11.75;;;29.62;97767.55;;;;119166;1187;25151;-73
2022/07/21 08:03:36;;;;;;;;;10.00;10.00;;;29.59;97766.55;;;;119158;1187;25528;-72
2022/07/21 08:06:06;;;;;;;;;11.50;10.25;;;29.62;97770.20;;;;118966;1189;25352;-78
2022/07/21 08:08:33;;;;;;;;;13.50;12.00;;;29.62;97768.90;;;;118967;1188;26181;-72
2022/07/21 08:11:01;;;;;;;;;13.25;11.25;;;29.70;97768.95;;;;119120;1187;25974;-75
2022/07/21 08:13:29;;;;;;;;;16.25;12.75;;;29.74;97770.80;;;;119123;1186;25337;-76
2022/07/21 08:15:57;;;;;;;;;12.00;11.00;;;29.74;97773.23;;;;119141;1188;25507;-72
2022/07/21 08:18:26;;;;;;;;;18.75;11.25;;;29.73;97771.83;;;;119128;1187;25114;-73
2022/07/21 08:20:54;;;;;;;;;14.25;13.25;;;29.74;97772.89;;;;118900;1189;24986;-73
2022/07/21 08:23:26;;;;;;;;;13.75;10.75;;;29.72;97768.06;;;;118979;1187;25584;-73
2022/07/21 08:25:54;;;;;;;;;14.75;9.50;;;29.77;97777.02;;;;119132;1186;25599;-72
2022/07/21 08:28:25;;;;;;;;;11.75;10.00;;;29.78;97777.57;;;;119125;1187;25075;-73
2022/07/21 08:30:53;;;;;;;;;16.00;12.00;;;29.76;97772.53;;;;119128;1188;24954;-72
2022/07/21 08:33:23;;;;;;;;;11.00;11.00;;;29.70;97766.37;;;;118942;1188;25292;-70
2022/07/21 08:35:53;;;;;;;;;15.25;11.25;;;29.82;97774.08;;;;118843;1190;25322;-70
2022/07/21 08:38:22;;;;;;;;;13.00;10.75;;;29.80;97772.23;;;;119018;1188;25440;-70
2022/07/21 08:40:52;;;;;;;;;13.25;11.25;;;29.79;97769.94;;;;118894;1190;25265;-74
2022/07/21 08:43:20;;;;;;;;;11.00;9.50;;;29.79;97770.27;;;;118967;1189;25418;-71
2022/07/21 08:45:48;;;;;;;;;8.50;8.50;;;29.86;97776.16;;;;118971;1189;25150;-72
2022/07/21 08:48:19;;;;;;;;;12.25;10.25;;;29.78;97770.54;;;;119148;1187;24791;-73
2022/07/21 08:50:48;;;;;;;;;11.25;10.25;;;29.67;97761.38;;;;119155;1186;25165;-73
2022/07/21 08:53:17;;;;;;;;;10.67;10.67;;;29.75;97761.35;;;;118945;1188;25952;-70
2022/07/21 08:55:45;;;;;;;;;18.00;11.25;;;29.80;97759.02;;;;119115;1188;25313;-69
2022/07/21 08:58:14;;;;;;;;;16.25;12.25;;;29.85;97760.86;;;;119326;1187;25251;-72
2022/07/21 09:00:48;;;;;;;;;14.25;12.50;;;30.05;97755.27;;;;119181;1186;24809;-73
2022/07/21 09:03:18;;;;;;;;;16.50;12.25;;;30.17;97752.79;;;;119159;1186;26177;-71
2022/07/21 09:06:14;;;;;;;;;11.50;8.25;;;30.15;97753.48;;;;119153;1187;25268;-75
2022/07/21 09:08:48;;;;;;;;;21.75;13.00;;;30.14;97748.41;;;;119122;1186;25695;-75
2022/07/21 09:11:25;;;;;;;;;11.75;9.50;;;30.09;97750.98;;;;118953;1188;26390;-75
2022/07/21 09:14:07;;;;;;;;;11.25;9.25;;;30.05;97752.50;;;;118965;1189;25948;-76
2022/07/21 09:16:39;;;;;;;;;16.00;12.25;;;30.04;97756.33;;;;119122;1188;24820;-72
2022/07/21 09:19:35;;;;;;;;;17.00;10.50;;;30.02;97745.52;;;;118933;1189;25586;-71
2022/07/21 09:22:06;;;;;;;;;11.00;10.50;;;30.12;97746.94;;;;119116;1187;25308;-69
2022/07/21 09:24:39;;;;;;;;;14.00;14.00;;;30.10;97744.71;;;;119167;1187;25009;-69
2022/07/21 09:27:15;;;;;;;;;18.50;12.75;;;30.09;97744.77;;;;119151;1187;25721;-69
2022/07/21 09:29:44;;;;;;;;;13.75;11.50;;;30.08;97745.48;;;;119137;1187;25647;-70
2022/07/21 09:32:36;;;;;;;;;13.00;11.25;;;30.05;97741.50;;;;119175;1188;25043;-70
2022/07/21 09:35:10;;;;;;;;;16.50;13.00;;;30.01;97736.44;;;;119177;1187;25313;-70
2022/07/21 09:37:40;;;;;;;;;10.00;9.50;;;30.06;97736.48;;;;119128;1187;25676;-71
2022/07/21 09:40:11;;;;;;;;;11.50;9.75;;;30.13;97732.77;;;;118956;1188;25374;-73
2022/07/21 09:42:41;;;;;;;;;17.50;11.50;;;30.24;97740.45;;;;119126;1188;25951;-77
2022/07/21 09:45:16;;;;;;;;;16.25;11.50;;;30.14;97736.11;;;;118935;1190;26250;-72
2022/07/21 09:47:45;;;;;;;;;14.00;8.25;;;30.19;97732.26;;;;118929;1188;25560;-67
2022/07/21 09:50:16;;;;;;;;;9.67;9.33;;;30.17;97726.23;;;;119227;1188;25468;-71
2022/07/21 09:52:57;;;;;;;;;9.75;8.75;;;30.41;97726.86;;;;119100;1187;24766;-74
2022/07/21 09:55:25;;;;;;;;;8.00;8.00;;;30.38;97726.20;;;;118998;1188;25246;-74
2022/07/21 09:57:55;;;;;;;;;6.50;6.50;;;30.36;97723.18;;;;119136;1188;25061;-71
2022/07/21 10:00:23;;;;;;;;;9.25;7.75;;;30.31;97726.06;;;;118953;1189;25632;-71
2022/07/21 10:02:51;;;;;;;;;11.25;9.25;;;30.28;97724.33;;;;119110;1188;25593;-70
2022/07/21 10:05:21;;;;;;;;;12.50;11.50;;;30.25;97723.98;;;;119126;1187;24992;-70
2022/07/21 10:08:03;;;;;;;;;8.00;8.00;;;30.34;97729.07;;;;118959;1188;25015;-71
2022/07/21 10:10:34;;;;;;;;;9.50;8.50;;;30.36;97733.33;;;;119150;1188;26604;-72
2022/07/21 10:13:23;;;;;;;;;11.50;8.75;;;30.31;97722.00;;;;118969;1188;24820;-71
2022/07/21 10:15:52;;;;;;;;;9.50;9.50;;;30.39;97719.89;;;;119149;1188;25604;-66
2022/07/21 10:18:28;;;;;;;;;10.00;8.50;;;30.31;97718.91;;;;119097;1188;24687;-67
2022/07/21 10:21:02;;;;;;;;;13.50;12.00;;;30.29;97723.48;;;;118981;1189;25440;-71
2022/07/21 10:23:41;;;;;;;;;17.00;16.50;;;30.24;97727.52;;;;119268;1186;25880;-68
2022/07/21 10:26:11;;;;;;;;;19.25;17.25;;;30.31;97733.34;;;;119258;1187;26361;-69
2022/07/21 10:28:44;;;;;;;;;15.25;13.25;;;30.30;97726.90;;;;119244;1187;25929;-79
2022/07/21 10:31:21;;;;;;;;;8.75;8.75;;;30.35;97730.14;;;;118975;1188;25427;-75
2022/07/21 10:33:54;;;;;;;;;8.75;8.75;;;30.35;97726.48;;;;119254;1187;25234;-77
2022/07/21 10:36:41;;;;;;;;;15.00;11.50;;;30.30;97719.79;;;;119249;1187;25592;-70
2022/07/21 10:39:10;;;;;;;;;16.50;13.25;;;30.35;97719.44;;;;119245;1188;25570;-69
2022/07/21 10:41:46;;;;;;;;;21.00;18.00;;;30.31;97714.48;;;;119258;1187;24916;-69
2022/07/21 10:44:29;;;;;;;;;11.75;8.75;;;30.26;97715.20;;;;119242;1186;25948;-68
2022/07/21 10:47:07;;;;;;;;;7.75;7.50;;;30.33;97711.14;;;;119251;1187;25008;-69
2022/07/21 10:49:54;;;;;;;;;14.00;11.50;;;30.30;97708.55;;;;119013;1189;26367;-69
2022/07/21 10:52:41;;;;;;;;;13.00;8.50;;;30.23;97712.88;;;;119242;1187;25099;-71
2022/07/21 10:55:09;;;;;;;;;8.50;7.00;;;30.24;97709.51;;;;119253;1187;25203;-71
2022/07/21 10:57:47;;;;;;;;;9.25;6.50;;;30.22;97708.83;;;;119249;1188;24884;-71
2022/07/21 11:00:29;;;;;;;;;8.00;7.33;;;30.26;97706.50;;;;119249;1187;25520;-69
2022/07/21 11:02:59;;;;;;;;;6.00;6.00;;;30.25;97701.36;;;;119026;1188;24954;-69
2022/07/21 11:05:33;;;;;;;;;10.00;7.50;;;30.28;97701.90;;;;119239;1187;25093;-69
2022/07/21 11:08:14;;;;;;;;;10.75;6.00;;;30.32;97699.70;;;;119255;1188;25057;-68
2022/07/21 11:10:52;;;;;;;;;9.25;5.25;;;30.28;97711.34;;;;119261;1187;25730;-70
2022/07/21 11:13:25;;;;;;;;;7.25;6.00;;;30.27;97703.78;;;;119256;1186;25826;-69
2022/07/21 11:15:57;;;;;;;;;5.00;5.00;;;30.22;97707.60;;;;119242;1188;25776;-69
2022/07/21 11:18:30;;;;;;;;;7.25;6.00;;;30.27;97695.77;;;;119083;1187;25615;-68
2022/07/21 11:21:14;;;;;;;;;7.00;5.75;;;30.23;97693.31;;;;118983;1189;26066;-69
2022/07/21 11:23:47;;;;;;;;;7.50;4.50;;;30.25;97694.70;;;;118996;1189;25918;-72
2022/07/21 11:26:23;;;;;;;;;9.00;7.75;;;30.25;97695.27;;;;119020;1189;25555;-72
2022/07/21 11:29:05;;;;;;;;;7.00;6.00;;;30.23;97695.33;;;;118990;1190;25690;-72
2022/07/21 11:31:45;;;;;;;;;5.00;3.00;;;30.33;97695.20;;;;118972;1190;25542;-71
2022/07/21 11:34:13;;;;;;;;;7.50;4.75;;;30.42;97695.02;;;;119006;1190;25818;-72
2022/07/21 11:36:41;;;;;;;;;6.50;6.50;;;30.38;97698.00;;;;118956;1190;25493;-71
2022/07/21 11:39:12;;;;;;;;;6.00;5.50;;;30.32;97685.72;;;;118981;1190;25652;-71
2022/07/21 11:41:41;;;;;;;;;6.00;4.25;;;30.32;97692.30;;;;118962;1190;25079;-72
2022/07/21 11:44:10;;;;;;;;;6.25;4.50;;;30.37;97688.37;;;;118991;1190;25663;-73
2022/07/21 11:47:05;;;;;;;;;5.50;5.00;;;30.35;97682.85;;;;118990;1189;25029;-71
2022/07/21 11:49:34;;;;;;;;;6.00;5.50;;;30.45;97680.36;;;;118951;1189;26190;-74
2022/07/21 11:52:08;;;;;;;;;4.75;4.75;;;30.68;97685.91;;;;119132;1186;25581;-66
2022/07/21 11:54:45;;;;;;;;;3.25;3.25;;;30.63;97684.14;;;;119147;1187;26376;-70
2022/07/21 11:57:14;;;;;;;;;15.00;10.33;;;30.53;97676.36;;;;119147;1187;25469;-67
2022/07/21 11:59:43;;;;;;;;;19.25;14.00;;;30.48;97670.59;;;;119015;1189;25366;-66
2022/07/21 12:02:14;;;;;;;;;10.50;8.75;;;30.44;97668.69;;;;119199;1188;25094;-66
2022/07/21 12:05:03;;;;;;;;;11.00;9.00;;;30.38;97670.01;;;;119177;1188;24946;-66
2022/07/21 12:07:35;;;;;;;;;18.50;15.75;;;30.38;97663.35;;;;119173;1187;25283;-65
2022/07/21 12:10:11;;;;;;;;;10.00;8.50;;;30.36;97658.11;;;;119157;1187;25611;-66
2022/07/21 12:12:41;;;;;;;;;18.75;13.00;;;30.33;97658.73;;;;119181;1186;25496;-65
2022/07/21 12:15:15;;;;;;;;;22.00;11.00;;;30.29;97654.14;;;;119171;1188;26383;-66